createdAt,value
2018-03-11T00:00:50.951Z,99.57
2018-03-11T00:03:19.221Z,89.40
2018-03-11T00:05:47.439Z,82.37
2018-03-11T00:08:15.660Z,95.97
2018-03-11T00:10:44.713Z,88.33
2018-03-11T00:13:12.960Z,76.83
2018-03-11T00:15:41.919Z,86.73
2018-03-11T00:18:10.122Z,78.87
2018-03-11T00:20:39.127Z,82.57
2018-03-11T00:23:07.327Z,76.33
2018-03-11T00:25:35.590Z,80.37
2018-03-11T00:28:03.807Z,75.73
2018-03-11T00:30:31.982Z,80.30
2018-03-11T00:33:00.153Z,89.33
2018-03-11T00:35:28.348Z,82.13
2018-03-11T00:37:57.286Z,73.43
2018-03-11T00:40:25.453Z,78.03
2018-03-11T00:42:53.626Z,66.13
2018-03-11T00:45:21.902Z,88.37
2018-03-11T00:47:50.086Z,84.10
2018-03-11T00:50:18.413Z,71.67
2018-03-11T00:52:47.381Z,73.77
2018-03-11T00:55:15.600Z,69.80
2018-03-11T00:57:43.857Z,68.37
2018-03-11T01:00:12.133Z,71.47
2018-03-11T01:02:41.143Z,75.70
2018-03-11T01:05:09.414Z,73.97
2018-03-11T01:07:37.734Z,78.70
2018-03-11T01:10:06.019Z,78.73
2018-03-11T01:12:34.281Z,80.80
2018-03-11T01:15:02.608Z,69.23
2018-03-11T01:17:30.816Z,76.60
2018-03-11T01:19:59.037Z,75.00
2018-03-11T01:22:27.237Z,81.60
2018-03-11T01:24:55.495Z,63.23
2018-03-11T01:27:24.462Z,72.27
2018-03-11T01:29:52.651Z,77.40
2018-03-11T01:32:20.842Z,73.73
2018-03-11T01:34:49.025Z,71.03
2018-03-11T01:37:17.244Z,79.23
2018-03-11T01:39:45.435Z,85.43
2018-03-11T01:42:13.782Z,85.27
2018-03-11T01:44:42.064Z,79.07
2018-03-11T01:50:32.545Z,91.63
2018-03-11T01:53:24.832Z,83.80
2018-03-11T01:55:53.076Z,75.57
2018-03-11T01:58:21.304Z,83.43
2018-03-11T02:00:50.372Z,77.30
2018-03-11T02:03:18.655Z,79.37
2018-03-11T02:05:46.969Z,77.27
2018-03-11T02:08:15.174Z,75.13
2018-03-11T02:10:43.497Z,79.23
2018-03-11T02:13:12.597Z,83.53
2018-03-11T02:15:59.890Z,83.67
2018-03-11T02:18:35.057Z,82.27
2018-03-11T03:08:39.482Z,72.47
2018-03-11T03:11:07.698Z,80.80
2018-03-11T03:13:35.915Z,92.37
2018-03-11T03:16:04.108Z,90.20
2018-03-11T03:18:33.259Z,88.80
2018-03-11T03:21:01.454Z,82.50
2018-03-11T03:23:29.715Z,95.70
2018-03-11T03:25:57.898Z,80.47
2018-03-11T03:28:26.080Z,96.07
2018-03-11T03:30:54.300Z,93.03
2018-03-11T03:33:22.478Z,86.97
2018-03-11T03:35:50.702Z,96.20
2018-03-11T03:38:18.881Z,81.93
2018-03-11T03:40:47.131Z,77.03
2018-03-11T03:43:15.346Z,80.33
2018-03-11T03:45:44.296Z,82.80
2018-03-11T03:48:12.476Z,77.40
2018-03-11T03:50:40.690Z,72.47
2018-03-11T03:53:08.866Z,79.77
2018-03-11T03:55:37.032Z,71.63
2018-03-11T03:58:05.226Z,68.90
2018-03-11T04:00:33.409Z,73.90
2018-03-11T04:03:01.593Z,67.70
2018-03-11T04:05:29.882Z,64.00
2018-03-11T04:07:58.059Z,64.67
2018-03-11T04:10:26.340Z,64.77
2018-03-11T04:12:54.558Z,62.67
2018-03-11T04:15:22.755Z,59.33
2018-03-11T04:17:51.111Z,64.20
2018-03-11T04:20:19.293Z,62.33
2018-03-11T04:22:47.512Z,71.03
2018-03-11T04:25:15.871Z,62.17
2018-03-11T04:27:44.063Z,61.87
2018-03-11T04:30:12.294Z,63.03
2018-03-11T04:32:40.574Z,63.27
2018-03-11T04:35:08.837Z,62.03
2018-03-11T04:37:37.042Z,61.90
2018-03-11T04:40:05.247Z,67.57
2018-03-11T04:42:34.219Z,60.33
2018-03-11T04:45:02.441Z,65.00
2018-03-11T04:47:30.629Z,63.13
2018-03-11T04:49:58.805Z,57.77
2018-03-11T04:52:27.021Z,57.60
2018-03-11T04:54:55.192Z,57.17
2018-03-11T04:57:23.396Z,51.83
2018-03-11T04:59:52.322Z,53.00
2018-03-11T05:02:20.568Z,61.60
2018-03-11T05:04:48.769Z,66.13
2018-03-11T05:07:16.993Z,51.60
2018-03-11T05:09:46.043Z,57.80
2018-03-11T05:12:14.252Z,54.93
2018-03-11T05:14:43.198Z,59.57
2018-03-11T05:17:11.373Z,57.30
2018-03-11T05:19:39.548Z,51.93
2018-03-11T05:22:07.728Z,58.13
2018-03-11T05:24:35.928Z,53.63
2018-03-11T05:27:04.124Z,54.67
2018-03-11T05:29:33.161Z,58.47
2018-03-11T05:32:01.359Z,55.40
2018-03-11T05:34:29.550Z,50.13
2018-03-11T05:36:57.742Z,57.67
2018-03-11T05:39:26.699Z,59.00
2018-03-11T05:41:55.658Z,59.73
2018-03-11T05:44:23.876Z,58.73
2018-03-11T05:46:52.056Z,66.83
2018-03-11T05:49:20.290Z,53.80
2018-03-11T05:51:48.487Z,58.80
2018-03-11T05:54:16.682Z,52.60
2018-03-11T05:56:44.921Z,50.40
2018-03-11T05:59:13.122Z,51.47
2018-03-11T06:01:41.572Z,56.27
2018-03-11T06:04:09.755Z,51.03
2018-03-11T06:06:37.954Z,57.27
2018-03-11T06:09:06.190Z,52.07
2018-03-11T06:11:34.404Z,53.03
2018-03-11T06:14:03.360Z,52.13
2018-03-11T06:16:32.359Z,56.97
2018-03-11T06:19:00.562Z,53.77
2018-03-11T06:21:28.756Z,58.53
2018-03-11T06:23:56.975Z,55.43
2018-03-11T06:26:25.170Z,51.20
2018-03-11T06:28:53.374Z,53.83
2018-03-11T06:31:21.579Z,51.50
2018-03-11T06:33:50.622Z,48.20
2018-03-11T06:36:18.879Z,49.30
2018-03-11T06:38:47.074Z,56.40
2018-03-11T06:41:16.068Z,52.23
2018-03-11T06:43:45.081Z,51.17
2018-03-11T06:46:13.253Z,48.73
2018-03-11T06:48:41.434Z,51.00
2018-03-11T06:51:09.622Z,46.83
2018-03-11T06:53:37.881Z,60.03
2018-03-11T06:56:06.146Z,52.27
2018-03-11T06:58:34.342Z,49.47
2018-03-11T07:01:02.542Z,46.77
2018-03-11T07:03:30.779Z,48.80
2018-03-11T07:05:58.963Z,49.10
2018-03-11T07:08:27.180Z,45.13
2018-03-11T07:10:55.442Z,46.93
2018-03-11T07:13:23.612Z,45.97
2018-03-11T07:15:51.789Z,43.90
2018-03-11T07:18:19.988Z,48.10
2018-03-11T07:20:48.154Z,44.17
2018-03-11T07:23:16.351Z,45.23
2018-03-11T07:25:45.406Z,44.03
2018-03-11T07:28:13.633Z,46.60
2018-03-11T07:30:42.239Z,43.67
2018-03-11T07:33:10.444Z,46.20
2018-03-11T07:35:38.643Z,40.47
2018-03-11T07:38:07.670Z,46.63
2018-03-11T07:40:35.920Z,39.93
2018-03-11T07:43:04.133Z,42.60
2018-03-11T07:45:32.312Z,42.07
2018-03-11T07:48:00.506Z,41.00
2018-03-11T07:50:29.542Z,39.07
2018-03-11T07:52:57.775Z,43.13
2018-03-11T07:55:25.959Z,41.47
2018-03-11T07:57:54.158Z,40.33
2018-03-11T08:00:22.421Z,38.27
2018-03-11T08:02:50.633Z,35.63
2018-03-11T08:05:18.872Z,38.87
2018-03-11T08:07:47.087Z,38.63
2018-03-11T08:10:15.270Z,37.40
2018-03-11T08:12:43.506Z,34.20
2018-03-11T08:15:11.703Z,34.97
2018-03-11T08:17:39.897Z,35.67
2018-03-11T08:20:08.128Z,34.10
2018-03-11T08:22:36.509Z,36.17
2018-03-11T08:25:04.683Z,32.33
2018-03-11T08:27:32.875Z,33.60
2018-03-11T08:30:01.098Z,30.17
2018-03-11T08:32:29.312Z,33.80
2018-03-11T08:34:57.503Z,31.00
2018-03-11T08:37:25.714Z,32.13
2018-03-11T08:39:53.896Z,31.77
2018-03-11T08:42:22.904Z,31.33
2018-03-11T08:44:51.119Z,32.07
2018-03-11T08:47:19.488Z,27.73
2018-03-11T08:49:48.495Z,28.03
2018-03-11T08:52:16.788Z,28.47
2018-03-11T08:54:44.980Z,27.27
2018-03-11T08:57:13.218Z,27.30
2018-03-11T08:59:41.501Z,25.53
2018-03-11T09:02:09.687Z,25.97
2018-03-11T09:04:38.003Z,26.60
2018-03-11T09:07:06.190Z,27.47
2018-03-11T09:09:34.451Z,26.57
2018-03-11T09:12:02.632Z,25.53
2018-03-11T09:14:30.831Z,26.23
2018-03-11T09:16:59.043Z,26.00
2018-03-11T09:19:27.231Z,26.30
2018-03-11T09:21:56.237Z,24.37
2018-03-11T09:24:24.436Z,23.93
2018-03-11T09:26:52.670Z,22.70
2018-03-11T09:29:21.701Z,23.80
2018-03-11T09:31:51.003Z,23.27
2018-03-11T09:34:19.234Z,24.00
2018-03-11T09:36:48.201Z,24.67
2018-03-11T09:39:16.382Z,25.07
2018-03-11T09:41:44.661Z,24.90
2018-03-11T09:44:12.833Z,23.77
2018-03-11T09:46:41.015Z,25.10
2018-03-11T09:49:10.130Z,24.57
2018-03-11T09:51:39.095Z,24.20
2018-03-11T09:54:07.269Z,25.63
2018-03-11T09:56:35.510Z,22.73
2018-03-11T09:59:04.452Z,25.67
2018-03-11T10:01:33.483Z,20.93
2018-03-11T10:04:01.713Z,22.43
2018-03-11T10:06:30.728Z,22.83
2018-03-11T10:08:58.936Z,23.23
2018-03-11T10:11:27.166Z,21.77
2018-03-11T10:13:55.342Z,20.90
2018-03-11T10:16:23.537Z,21.67
2018-03-11T10:18:51.779Z,20.70
2018-03-11T10:21:20.727Z,20.70
2018-03-11T10:23:48.953Z,20.17
2018-03-11T10:26:17.157Z,18.70
2018-03-11T10:28:45.390Z,20.60
2018-03-11T10:31:14.356Z,19.87
2018-03-11T10:33:42.586Z,18.60
2018-03-11T10:36:10.783Z,16.87
2018-03-11T10:38:39.107Z,17.67
2018-03-11T10:41:07.343Z,16.33
2018-03-11T10:43:35.657Z,16.53
2018-03-11T10:46:04.699Z,18.67
2018-03-11T10:48:32.955Z,14.93
2018-03-11T10:51:01.203Z,13.00
2018-03-11T10:53:29.442Z,13.97
2018-03-11T10:55:57.745Z,11.97
2018-03-11T10:58:26.009Z,13.50
2018-03-11T11:00:55.141Z,12.10
2018-03-11T11:03:28.390Z,12.13
2018-03-11T11:05:56.620Z,11.57
2018-03-11T11:08:24.882Z,11.50
2018-03-11T11:10:53.055Z,10.30
2018-03-11T11:13:21.276Z,13.83
2018-03-11T11:15:49.577Z,11.37
2018-03-11T11:18:18.770Z,13.10
2018-03-11T11:20:47.749Z,11.90
2018-03-11T11:23:15.958Z,12.80
2018-03-11T11:25:44.169Z,12.53
2018-03-11T11:28:12.459Z,12.73
2018-03-11T11:30:40.679Z,13.63
2018-03-11T11:33:09.685Z,13.33
2018-03-11T11:35:37.877Z,13.77
2018-03-11T11:38:06.095Z,13.73
2018-03-11T11:40:35.867Z,11.97
2018-03-11T11:43:04.157Z,16.00
2018-03-11T11:45:32.431Z,14.03
2018-03-11T11:48:00.689Z,13.27
2018-03-11T11:50:28.938Z,18.03
2018-03-11T11:52:57.180Z,14.57
2018-03-11T11:58:00.619Z,13.53
2018-03-11T12:00:28.855Z,12.67
2018-03-11T12:02:57.417Z,14.00
2018-03-11T12:05:25.677Z,11.77
2018-03-11T12:07:56.437Z,11.63
2018-03-11T12:10:24.717Z,9.27
2018-03-11T12:12:53.790Z,9.50
2018-03-11T12:15:22.127Z,9.83
2018-03-11T12:17:50.339Z,9.20
2018-03-11T12:20:18.566Z,10.60
2018-03-11T12:22:46.850Z,8.37
2018-03-11T12:25:15.067Z,8.57
2018-03-11T12:27:43.302Z,12.90
2018-03-11T12:30:11.446Z,8.87
2018-03-11T12:32:39.799Z,10.23
2018-03-11T12:35:08.003Z,8.80
2018-03-11T12:37:37.042Z,11.10
2018-03-11T12:40:05.247Z,9.60
2018-03-11T12:42:33.518Z,9.53
2018-03-11T12:45:01.778Z,10.40
2018-03-11T12:47:30.013Z,8.33
2018-03-11T12:49:59.202Z,12.07
2018-03-11T12:52:27.450Z,7.80
2018-03-11T12:54:55.741Z,8.43
2018-03-11T12:57:24.051Z,8.50
2018-03-11T12:59:52.271Z,9.20
2018-03-11T13:02:20.579Z,12.20
2018-03-11T13:04:49.622Z,9.07
2018-03-11T13:07:18.136Z,7.83
2018-03-11T13:09:50.147Z,8.47
2018-03-11T13:12:18.337Z,9.30
2018-03-11T13:14:46.680Z,8.33
2018-03-11T13:17:14.978Z,9.03
2018-03-11T13:19:43.178Z,7.73
2018-03-11T13:22:11.423Z,7.20
2018-03-11T13:24:39.614Z,7.70
2018-03-11T13:27:07.781Z,6.97
2018-03-11T13:29:35.998Z,6.47
2018-03-11T13:32:22.166Z,6.63
2018-03-11T13:34:50.366Z,6.13
2018-03-11T13:37:19.364Z,8.20
2018-03-11T13:40:06.158Z,4.97
2018-03-11T13:42:34.454Z,5.80
2018-03-11T13:45:20.399Z,6.90
2018-03-11T13:47:48.666Z,5.10
2018-03-11T13:50:16.879Z,5.30
2018-03-11T13:55:56.769Z,6.70
2018-03-11T13:58:43.814Z,6.07
2018-03-11T14:01:12.000Z,5.97
2018-03-11T14:03:40.295Z,4.87
2018-03-11T14:06:08.497Z,6.27
2018-03-11T14:08:36.851Z,6.00
2018-03-11T14:11:05.111Z,6.27
2018-03-11T14:13:33.393Z,6.47
2018-03-11T14:16:01.622Z,9.60
2018-03-11T14:18:29.893Z,5.43
2018-03-11T14:20:58.132Z,6.13
2018-03-11T14:23:26.360Z,8.87
2018-03-11T14:25:54.566Z,5.00
2018-03-11T14:28:22.800Z,6.90
2018-03-11T14:30:51.056Z,4.83
2018-03-11T14:33:20.091Z,5.17
2018-03-11T14:35:48.356Z,6.03
2018-03-11T14:38:16.742Z,5.20
2018-03-11T14:40:44.943Z,5.43
2018-03-11T14:43:13.129Z,5.17
2018-03-11T14:45:41.324Z,5.70
2018-03-11T14:48:09.573Z,5.97
2018-03-11T14:50:37.781Z,7.00
2018-03-11T14:53:06.077Z,5.10
2018-03-11T14:55:34.265Z,5.40
2018-03-11T14:58:02.511Z,5.97
2018-03-11T15:00:30.700Z,4.50
2018-03-11T15:02:58.928Z,6.53
2018-03-11T15:05:27.962Z,6.23
2018-03-11T15:07:56.189Z,5.47
2018-03-11T15:10:25.201Z,4.97
2018-03-11T15:12:54.148Z,6.07
2018-03-11T15:15:22.389Z,5.93
2018-03-11T15:17:50.686Z,5.53
2018-03-11T15:20:18.919Z,6.30
2018-03-11T15:22:47.105Z,9.33
2018-03-11T15:27:50.509Z,4.83
2018-03-11T15:30:19.579Z,4.83
2018-03-11T15:32:51.165Z,5.03
2018-03-11T15:35:24.417Z,4.07
2018-03-11T15:37:53.995Z,5.10
2018-03-11T15:40:22.186Z,4.53
2018-03-11T15:42:50.420Z,5.70
2018-03-11T15:45:18.619Z,4.43
2018-03-11T15:47:46.795Z,5.07
2018-03-11T15:50:15.018Z,4.83
2018-03-11T15:52:43.202Z,7.80
2018-03-11T15:55:11.380Z,4.53
2018-03-11T15:57:39.634Z,4.93
2018-03-11T16:00:08.584Z,4.70
2018-03-11T16:02:36.763Z,4.67
2018-03-11T16:05:04.937Z,6.23
2018-03-11T16:07:33.178Z,6.77
2018-03-11T16:10:01.521Z,5.77
2018-03-11T16:12:29.720Z,5.97
2018-03-11T16:14:57.942Z,6.63
2018-03-11T16:17:26.104Z,5.70
2018-03-11T16:19:54.325Z,5.93
2018-03-11T16:22:22.514Z,5.97
2018-03-11T16:24:50.739Z,5.73
2018-03-11T16:27:18.920Z,9.93
2018-03-11T16:29:47.891Z,9.70
2018-03-11T16:32:16.094Z,8.27
2018-03-11T16:34:45.079Z,7.70
2018-03-11T16:37:14.048Z,7.00
2018-03-11T16:39:43.099Z,7.53
2018-03-11T16:42:11.399Z,7.67
2018-03-11T16:44:39.650Z,8.40
2018-03-11T16:47:07.904Z,9.10
2018-03-11T16:49:36.884Z,8.23
2018-03-11T16:52:05.848Z,8.90
2018-03-11T16:54:34.113Z,9.07
2018-03-11T16:57:03.289Z,9.10
2018-03-11T16:59:31.471Z,9.23
2018-03-11T17:01:59.684Z,9.07
2018-03-11T17:04:28.514Z,9.23
2018-03-11T17:06:57.079Z,10.53
2018-03-11T17:09:25.660Z,10.00
2018-03-11T17:11:54.665Z,10.77
2018-03-11T17:14:22.845Z,12.50
2018-03-11T17:16:51.052Z,12.70
2018-03-11T17:19:20.040Z,12.20
2018-03-11T17:21:48.242Z,11.27
2018-03-11T17:24:17.247Z,11.90
2018-03-11T17:26:46.206Z,10.37
2018-03-11T17:29:14.420Z,11.00
2018-03-11T17:31:43.642Z,10.93
2018-03-11T17:34:11.943Z,11.13
2018-03-11T17:36:40.211Z,10.13
2018-03-11T17:39:08.429Z,10.20
2018-03-11T17:41:36.659Z,10.50
2018-03-11T17:44:04.886Z,11.43
2018-03-11T17:46:33.866Z,11.07
2018-03-11T17:49:02.881Z,11.60
2018-03-11T17:51:31.902Z,11.00
2018-03-11T17:54:00.134Z,10.00
2018-03-11T17:56:29.939Z,11.90
2018-03-11T17:58:58.995Z,11.83
2018-03-11T18:01:27.832Z,10.53
2018-03-11T18:03:56.995Z,13.53
2018-03-11T18:06:25.434Z,13.10
2018-03-11T18:08:54.974Z,11.97
2018-03-11T18:11:23.172Z,11.80
2018-03-11T18:13:52.145Z,10.77
2018-03-11T18:16:20.347Z,15.97
2018-03-11T18:18:49.348Z,12.50
2018-03-11T18:21:17.593Z,12.47
2018-03-11T18:23:46.615Z,13.03
2018-03-11T18:26:15.675Z,12.05
2018-03-11T18:28:43.922Z,12.13
2018-03-11T18:31:12.169Z,12.60
2018-03-11T18:33:40.406Z,12.50
2018-03-11T18:36:08.615Z,13.13
2018-03-11T18:38:36.814Z,13.77
2018-03-11T18:41:05.065Z,15.37
2018-03-11T18:43:33.338Z,14.03
2018-03-11T18:46:01.596Z,15.97
2018-03-11T18:48:29.822Z,14.93
2018-03-11T18:50:58.167Z,16.00
2018-03-11T18:53:26.545Z,16.50
2018-03-11T18:55:54.818Z,14.73
2018-03-11T18:58:23.027Z,15.30
2018-03-11T19:00:51.204Z,16.63
2018-03-11T19:03:19.505Z,15.43
2018-03-11T19:05:47.746Z,16.97
2018-03-11T19:08:15.971Z,16.60
2018-03-11T19:10:44.295Z,16.87
2018-03-11T19:13:12.734Z,16.40
2018-03-11T19:15:40.973Z,16.50
2018-03-11T19:18:09.382Z,17.53
2018-03-11T19:20:38.369Z,16.73
2018-03-11T19:23:07.437Z,15.80
2018-03-11T19:25:35.663Z,18.30
2018-03-11T19:28:03.987Z,16.50
2018-03-11T19:30:32.335Z,16.53
2018-03-11T19:33:00.578Z,18.80
2018-03-11T19:35:28.883Z,17.17
2018-03-11T19:37:57.305Z,18.40
2018-03-11T19:40:26.347Z,18.63
2018-03-11T19:42:54.709Z,18.97
2018-03-11T19:45:23.935Z,22.73
2018-03-11T19:47:52.242Z,21.77
2018-03-11T19:50:20.547Z,19.27
2018-03-11T19:52:49.548Z,18.83
2018-03-11T19:55:17.846Z,22.10
2018-03-11T19:57:46.115Z,20.57
2018-03-11T20:00:14.327Z,22.40
2018-03-11T20:02:42.550Z,19.53
2018-03-11T20:05:10.750Z,19.17
2018-03-11T20:07:39.044Z,22.17
2018-03-11T20:10:07.281Z,20.30
2018-03-11T20:12:35.538Z,19.30
2018-03-11T20:15:04.536Z,19.13
2018-03-11T20:17:32.882Z,19.00
2018-03-11T20:20:01.188Z,17.70
2018-03-11T20:22:29.450Z,19.27
2018-03-11T20:24:58.454Z,19.20
2018-03-11T20:27:27.440Z,21.50
2018-03-11T20:29:56.471Z,20.97
2018-03-11T20:32:24.816Z,19.07
2018-03-11T20:34:53.787Z,20.80
2018-03-11T20:37:22.044Z,20.00
2018-03-11T20:39:50.598Z,20.07
2018-03-11T20:42:18.836Z,21.10
2018-03-11T20:44:48.058Z,23.50
2018-03-11T20:47:16.301Z,21.93
2018-03-11T20:49:45.278Z,22.13
2018-03-11T20:52:13.714Z,23.40
2018-03-11T20:54:41.947Z,24.23
2018-03-11T20:57:10.890Z,26.03
2018-03-11T20:59:39.109Z,25.60
2018-03-11T21:02:08.150Z,27.50
2018-03-11T21:04:36.377Z,29.73
2018-03-11T21:07:04.581Z,29.33
2018-03-11T21:09:32.968Z,29.57
2018-03-11T21:12:01.172Z,29.83
2018-03-11T21:14:29.411Z,29.53
2018-03-11T21:16:57.599Z,31.47
2018-03-11T21:19:25.883Z,30.30
2018-03-11T21:21:54.173Z,34.17
2018-03-11T21:24:22.434Z,33.83
2018-03-11T21:26:50.816Z,33.67
2018-03-11T21:29:19.114Z,34.17
2018-03-11T21:31:47.392Z,33.37
2018-03-11T21:34:16.350Z,35.60
2018-03-11T21:36:44.693Z,35.93
2018-03-11T21:39:12.914Z,35.87
2018-03-11T21:41:41.164Z,35.77
2018-03-11T21:44:09.620Z,36.37
2018-03-11T21:46:38.565Z,38.73
2018-03-11T21:49:06.870Z,39.13
2018-03-11T21:51:35.816Z,37.80
2018-03-11T21:54:04.030Z,36.07
2018-03-11T21:56:32.313Z,36.33
2018-03-11T21:59:01.294Z,36.73
2018-03-11T22:01:29.548Z,35.77
2018-03-11T22:03:57.792Z,35.90
2018-03-11T22:06:26.051Z,36.27
2018-03-11T22:08:54.281Z,36.90
2018-03-11T22:11:22.555Z,36.13
2018-03-11T22:13:51.022Z,43.50
2018-03-11T22:16:19.249Z,35.87
2018-03-11T22:18:47.461Z,40.10
2018-03-11T22:21:15.769Z,36.23
2018-03-11T22:23:44.044Z,36.93
2018-03-11T22:26:12.842Z,39.13
2018-03-11T22:28:41.813Z,38.33
2018-03-11T22:31:10.594Z,38.03
2018-03-11T22:33:38.813Z,39.23
2018-03-11T22:36:07.873Z,38.87
2018-03-11T22:38:37.585Z,37.67
2018-03-11T22:41:05.761Z,39.30
2018-03-11T22:43:33.958Z,38.30
2018-03-11T22:46:02.173Z,44.80
2018-03-11T22:48:30.432Z,38.77
2018-03-11T22:50:58.996Z,39.57
2018-03-11T22:53:27.192Z,39.17
2018-03-11T22:55:55.805Z,38.43
2018-03-11T22:58:24.059Z,41.53
2018-03-11T23:00:52.247Z,40.23
2018-03-11T23:03:20.466Z,41.93
2018-03-11T23:05:48.663Z,41.37
2018-03-11T23:08:16.895Z,39.30
2018-03-11T23:10:45.097Z,41.30
2018-03-11T23:13:13.319Z,41.43
2018-03-11T23:15:41.622Z,41.27
2018-03-11T23:18:10.595Z,41.73
2018-03-11T23:20:38.809Z,40.67
2018-03-11T23:23:07.026Z,48.87
2018-03-11T23:25:35.236Z,43.17
2018-03-11T23:28:04.198Z,42.90
2018-03-11T23:30:32.427Z,44.37
2018-03-11T23:33:00.627Z,41.43
2018-03-11T23:35:28.876Z,42.47
2018-03-11T23:37:57.146Z,47.57
2018-03-11T23:40:25.401Z,42.77
2018-03-11T23:42:54.391Z,43.00
2018-03-11T23:45:22.569Z,40.17
2018-03-11T23:47:50.872Z,44.10
2018-03-11T23:50:19.150Z,45.70
2018-03-11T23:52:47.389Z,42.97
2018-03-11T23:55:15.742Z,41.93
2018-03-11T23:57:44.116Z,43.90
